sensor_id;sensor_type;location;lat;lon;timestamp;temperature;humidity
24468;DHT22;12634;50.852;5.676;2023-02-14T00:02:17;4.00;99.90
24468;DHT22;12634;50.852;5.676;2023-02-14T00:04:44;3.70;99.90
24468;DHT22;12634;50.852;5.676;2023-02-14T00:07:13;3.60;99.90
24468;DHT22;12634;50.852;5.676;2023-02-14T00:09:40;3.80;99.90
24468;DHT22;12634;50.852;5.676;2023-02-14T00:12:08;4.30;99.90
24468;DHT22;12634;50.852;5.676;2023-02-14T00:14:36;4.40;99.90
24468;DHT22;12634;50.852;5.676;2023-02-14T00:17:21;4.40;99.90
24468;DHT22;12634;50.852;5.676;2023-02-14T00:19:48;4.30;99.90
24468;DHT22;12634;50.852;5.676;2023-02-14T00:22:16;4.40;99.90
24468;DHT22;12634;50.852;5.676;2023-02-14T00:24:43;4.60;99.90
24468;DHT22;12634;50.852;5.676;2023-02-14T00:27:10;4.70;99.90
24468;DHT22;12634;50.852;5.676;2023-02-14T00:29:38;4.70;99.90
24468;DHT22;12634;50.852;5.676;2023-02-14T00:32:05;4.60;99.90
24468;DHT22;12634;50.852;5.676;2023-02-14T00:34:34;4.90;99.90
24468;DHT22;12634;50.852;5.676;2023-02-14T00:37:02;5.00;99.90
24468;DHT22;12634;50.852;5.676;2023-02-14T00:39:29;5.10;99.90
24468;DHT22;12634;50.852;5.676;2023-02-14T00:41:56;4.90;99.90
24468;DHT22;12634;50.852;5.676;2023-02-14T00:44:24;4.40;99.90
24468;DHT22;12634;50.852;5.676;2023-02-14T00:46:51;4.70;99.90
24468;DHT22;12634;50.852;5.676;2023-02-14T00:49:18;5.00;99.90
24468;DHT22;12634;50.852;5.676;2023-02-14T00:51:47;5.10;99.90
24468;DHT22;12634;50.852;5.676;2023-02-14T00:54:14;5.10;99.90
24468;DHT22;12634;50.852;5.676;2023-02-14T00:56:41;4.70;99.90
24468;DHT22;12634;50.852;5.676;2023-02-14T00:59:08;4.50;99.90
24468;DHT22;12634;50.852;5.676;2023-02-14T01:01:36;4.10;99.90
24468;DHT22;12634;50.852;5.676;2023-02-14T01:04:03;3.80;99.90
24468;DHT22;12634;50.852;5.676;2023-02-14T01:06:30;3.70;99.90
24468;DHT22;12634;50.852;5.676;2023-02-14T01:08:59;3.80;99.90
24468;DHT22;12634;50.852;5.676;2023-02-14T01:11:26;3.80;99.90
24468;DHT22;12634;50.852;5.676;2023-02-14T01:13:55;3.90;99.90
24468;DHT22;12634;50.852;5.676;2023-02-14T01:16:25;3.90;99.90
24468;DHT22;12634;50.852;5.676;2023-02-14T01:18:52;4.10;99.90
24468;DHT22;12634;50.852;5.676;2023-02-14T01:21:22;4.00;99.90
24468;DHT22;12634;50.852;5.676;2023-02-14T01:23:51;3.70;99.90
24468;DHT22;12634;50.852;5.676;2023-02-14T01:26:21;3.70;99.90
24468;DHT22;12634;50.852;5.676;2023-02-14T01:28:49;3.70;99.90
24468;DHT22;12634;50.852;5.676;2023-02-14T01:31:20;3.70;99.90
24468;DHT22;12634;50.852;5.676;2023-02-14T01:33:49;4.00;99.90
24468;DHT22;12634;50.852;5.676;2023-02-14T01:36:17;4.00;99.90
24468;DHT22;12634;50.852;5.676;2023-02-14T01:38:45;3.90;99.90
24468;DHT22;12634;50.852;5.676;2023-02-14T01:41:13;3.80;99.90
24468;DHT22;12634;50.852;5.676;2023-02-14T01:43:56;3.50;99.90
24468;DHT22;12634;50.852;5.676;2023-02-14T01:46:24;3.30;99.90
24468;DHT22;12634;50.852;5.676;2023-02-14T01:48:55;3.20;99.90
24468;DHT22;12634;50.852;5.676;2023-02-14T01:51:25;3.10;99.90
24468;DHT22;12634;50.852;5.676;2023-02-14T01:53:52;3.00;99.90
24468;DHT22;12634;50.852;5.676;2023-02-14T01:56:26;3.00;99.90
24468;DHT22;12634;50.852;5.676;2023-02-14T01:58:57;2.90;99.90
24468;DHT22;12634;50.852;5.676;2023-02-14T02:01:27;2.90;99.90
24468;DHT22;12634;50.852;5.676;2023-02-14T02:03:57;2.80;99.90
24468;DHT22;12634;50.852;5.676;2023-02-14T02:06:28;2.90;99.90
24468;DHT22;12634;50.852;5.676;2023-02-14T02:09:02;2.80;99.90
24468;DHT22;12634;50.852;5.676;2023-02-14T02:11:30;2.90;99.90
24468;DHT22;12634;50.852;5.676;2023-02-14T02:13:59;2.80;99.90
24468;DHT22;12634;50.852;5.676;2023-02-14T02:16:56;3.00;99.90
24468;DHT22;12634;50.852;5.676;2023-02-14T02:35:38;2.70;99.90
24468;DHT22;12634;50.852;5.676;2023-02-14T02:38:32;2.50;99.90
24468;DHT22;12634;50.852;5.676;2023-02-14T02:41:08;2.30;99.90
24468;DHT22;12634;50.852;5.676;2023-02-14T02:43:43;2.20;99.90
24468;DHT22;12634;50.852;5.676;2023-02-14T02:46:20;2.30;99.90
24468;DHT22;12634;50.852;5.676;2023-02-14T02:49:12;2.40;99.90
24468;DHT22;12634;50.852;5.676;2023-02-14T02:52:03;2.40;99.90
24468;DHT22;12634;50.852;5.676;2023-02-14T02:54:54;2.30;99.90
24468;DHT22;12634;50.852;5.676;2023-02-14T02:57:28;2.20;99.90
24468;DHT22;12634;50.852;5.676;2023-02-14T02:59:59;2.30;99.90
24468;DHT22;12634;50.852;5.676;2023-02-14T03:02:31;2.50;99.90
24468;DHT22;12634;50.852;5.676;2023-02-14T03:05:19;2.50;99.90
24468;DHT22;12634;50.852;5.676;2023-02-14T03:07:48;2.20;99.90
24468;DHT22;12634;50.852;5.676;2023-02-14T03:10:17;2.40;99.90
24468;DHT22;12634;50.852;5.676;2023-02-14T03:13:09;2.70;99.90
24468;DHT22;12634;50.852;5.676;2023-02-14T03:15:43;2.80;99.90
24468;DHT22;12634;50.852;5.676;2023-02-14T03:18:27;2.60;99.90
24468;DHT22;12634;50.852;5.676;2023-02-14T03:21:02;2.70;99.90
24468;DHT22;12634;50.852;5.676;2023-02-14T03:23:34;2.80;99.90
24468;DHT22;12634;50.852;5.676;2023-02-14T03:26:09;2.70;99.90
24468;DHT22;12634;50.852;5.676;2023-02-14T03:28:42;2.80;99.90
24468;DHT22;12634;50.852;5.676;2023-02-14T03:31:17;3.00;99.90
24468;DHT22;12634;50.852;5.676;2023-02-14T03:33:50;3.40;99.90
24468;DHT22;12634;50.852;5.676;2023-02-14T03:36:24;3.20;99.90
24468;DHT22;12634;50.852;5.676;2023-02-14T03:38:58;3.00;99.90
24468;DHT22;12634;50.852;5.676;2023-02-14T03:41:32;2.80;99.90
24468;DHT22;12634;50.852;5.676;2023-02-14T03:44:03;2.70;99.90
24468;DHT22;12634;50.852;5.676;2023-02-14T03:46:35;2.60;99.90
24468;DHT22;12634;50.852;5.676;2023-02-14T03:49:07;2.40;99.90
24468;DHT22;12634;50.852;5.676;2023-02-14T03:51:37;2.30;99.90
24468;DHT22;12634;50.852;5.676;2023-02-14T03:54:09;2.20;99.90
24468;DHT22;12634;50.852;5.676;2023-02-14T03:56:41;2.20;99.90
24468;DHT22;12634;50.852;5.676;2023-02-14T03:59:14;2.10;99.90
24468;DHT22;12634;50.852;5.676;2023-02-14T04:01:46;2.20;99.90
24468;DHT22;12634;50.852;5.676;2023-02-14T04:04:18;2.20;99.90
24468;DHT22;12634;50.852;5.676;2023-02-14T04:06:46;2.50;99.90
24468;DHT22;12634;50.852;5.676;2023-02-14T04:09:14;2.70;99.90
24468;DHT22;12634;50.852;5.676;2023-02-14T04:11:42;3.00;99.90
24468;DHT22;12634;50.852;5.676;2023-02-14T04:14:11;3.00;99.90
24468;DHT22;12634;50.852;5.676;2023-02-14T04:16:38;3.10;99.90
24468;DHT22;12634;50.852;5.676;2023-02-14T04:19:19;3.20;99.90
24468;DHT22;12634;50.852;5.676;2023-02-14T04:21:49;3.30;99.90
24468;DHT22;12634;50.852;5.676;2023-02-14T04:24:18;3.30;99.90
24468;DHT22;12634;50.852;5.676;2023-02-14T04:26:45;3.30;99.90
24468;DHT22;12634;50.852;5.676;2023-02-14T04:29:35;3.30;99.90
24468;DHT22;12634;50.852;5.676;2023-02-14T04:32:05;3.20;99.90
24468;DHT22;12634;50.852;5.676;2023-02-14T04:34:32;2.90;99.90
24468;DHT22;12634;50.852;5.676;2023-02-14T04:36:59;2.50;99.90
24468;DHT22;12634;50.852;5.676;2023-02-14T04:39:28;2.30;99.90
24468;DHT22;12634;50.852;5.676;2023-02-14T04:41:55;2.10;99.90
24468;DHT22;12634;50.852;5.676;2023-02-14T04:44:23;2.10;99.90
24468;DHT22;12634;50.852;5.676;2023-02-14T04:46:50;2.30;99.90
24468;DHT22;12634;50.852;5.676;2023-02-14T04:49:18;2.20;99.90
24468;DHT22;12634;50.852;5.676;2023-02-14T04:51:45;2.30;99.90
24468;DHT22;12634;50.852;5.676;2023-02-14T04:54:13;2.30;99.90
24468;DHT22;12634;50.852;5.676;2023-02-14T04:56:42;2.50;99.90
24468;DHT22;12634;50.852;5.676;2023-02-14T04:59:09;2.40;99.90
24468;DHT22;12634;50.852;5.676;2023-02-14T05:01:36;2.20;99.90
24468;DHT22;12634;50.852;5.676;2023-02-14T05:04:04;2.40;99.90
24468;DHT22;12634;50.852;5.676;2023-02-14T05:06:31;2.60;99.90
24468;DHT22;12634;50.852;5.676;2023-02-14T05:08:59;2.70;99.90
24468;DHT22;12634;50.852;5.676;2023-02-14T05:11:27;2.70;99.90
24468;DHT22;12634;50.852;5.676;2023-02-14T05:13:55;2.80;99.90
24468;DHT22;12634;50.852;5.676;2023-02-14T05:16:23;2.80;99.90
24468;DHT22;12634;50.852;5.676;2023-02-14T05:18:50;2.60;99.90
24468;DHT22;12634;50.852;5.676;2023-02-14T05:21:18;2.50;99.90
24468;DHT22;12634;50.852;5.676;2023-02-14T05:23:45;2.50;99.90
24468;DHT22;12634;50.852;5.676;2023-02-14T05:26:12;2.70;99.90
24468;DHT22;12634;50.852;5.676;2023-02-14T05:28:40;2.80;99.90
24468;DHT22;12634;50.852;5.676;2023-02-14T05:31:09;2.90;99.90
24468;DHT22;12634;50.852;5.676;2023-02-14T05:33:36;2.90;99.90
24468;DHT22;12634;50.852;5.676;2023-02-14T05:36:04;2.80;99.90
24468;DHT22;12634;50.852;5.676;2023-02-14T05:38:31;2.70;99.90
24468;DHT22;12634;50.852;5.676;2023-02-14T05:41:00;2.70;99.90
24468;DHT22;12634;50.852;5.676;2023-02-14T05:43:27;2.80;99.90
24468;DHT22;12634;50.852;5.676;2023-02-14T05:45:55;3.00;99.90
24468;DHT22;12634;50.852;5.676;2023-02-14T05:48:24;3.00;99.90
24468;DHT22;12634;50.852;5.676;2023-02-14T05:50:51;3.00;99.90
24468;DHT22;12634;50.852;5.676;2023-02-14T05:53:18;3.00;99.90
24468;DHT22;12634;50.852;5.676;2023-02-14T05:55:46;3.00;99.90
24468;DHT22;12634;50.852;5.676;2023-02-14T05:58:13;3.00;99.90
24468;DHT22;12634;50.852;5.676;2023-02-14T06:00:40;3.00;99.90
24468;DHT22;12634;50.852;5.676;2023-02-14T06:03:07;2.80;99.90
24468;DHT22;12634;50.852;5.676;2023-02-14T06:05:36;2.70;99.90
24468;DHT22;12634;50.852;5.676;2023-02-14T06:08:03;2.60;99.90
24468;DHT22;12634;50.852;5.676;2023-02-14T06:10:30;2.60;99.90
24468;DHT22;12634;50.852;5.676;2023-02-14T06:12:58;2.50;99.90
24468;DHT22;12634;50.852;5.676;2023-02-14T06:15:25;2.70;99.90
24468;DHT22;12634;50.852;5.676;2023-02-14T06:17:53;2.60;99.90
24468;DHT22;12634;50.852;5.676;2023-02-14T06:20:21;2.40;99.90
24468;DHT22;12634;50.852;5.676;2023-02-14T06:22:51;2.20;99.90
24468;DHT22;12634;50.852;5.676;2023-02-14T06:25:19;2.30;99.90
24468;DHT22;12634;50.852;5.676;2023-02-14T06:27:46;2.20;99.90
24468;DHT22;12634;50.852;5.676;2023-02-14T06:30:15;2.20;99.90
24468;DHT22;12634;50.852;5.676;2023-02-14T06:32:42;2.00;99.90
24468;DHT22;12634;50.852;5.676;2023-02-14T06:35:10;2.00;99.90
24468;DHT22;12634;50.852;5.676;2023-02-14T06:37:38;1.90;99.90
24468;DHT22;12634;50.852;5.676;2023-02-14T06:40:11;1.80;99.90
24468;DHT22;12634;50.852;5.676;2023-02-14T06:42:38;1.70;99.90
24468;DHT22;12634;50.852;5.676;2023-02-14T06:45:06;1.70;99.90
24468;DHT22;12634;50.852;5.676;2023-02-14T06:47:33;1.70;99.90
24468;DHT22;12634;50.852;5.676;2023-02-14T06:50:01;2.00;99.90
24468;DHT22;12634;50.852;5.676;2023-02-14T06:52:29;2.20;99.90
24468;DHT22;12634;50.852;5.676;2023-02-14T06:54:57;2.40;99.90
24468;DHT22;12634;50.852;5.676;2023-02-14T06:57:25;2.40;99.90
24468;DHT22;12634;50.852;5.676;2023-02-14T06:59:53;2.20;99.90
24468;DHT22;12634;50.852;5.676;2023-02-14T07:02:20;2.30;99.90
24468;DHT22;12634;50.852;5.676;2023-02-14T07:04:47;2.50;99.90
24468;DHT22;12634;50.852;5.676;2023-02-14T07:07:14;2.50;99.90
24468;DHT22;12634;50.852;5.676;2023-02-14T07:09:41;2.50;99.90
24468;DHT22;12634;50.852;5.676;2023-02-14T07:12:09;2.60;99.90
24468;DHT22;12634;50.852;5.676;2023-02-14T07:14:37;2.90;99.90
24468;DHT22;12634;50.852;5.676;2023-02-14T07:17:04;3.20;99.90
24468;DHT22;12634;50.852;5.676;2023-02-14T07:19:32;3.40;99.90
24468;DHT22;12634;50.852;5.676;2023-02-14T07:21:59;3.60;99.90
24468;DHT22;12634;50.852;5.676;2023-02-14T07:24:26;3.80;99.90
24468;DHT22;12634;50.852;5.676;2023-02-14T07:26:53;4.00;99.90
24468;DHT22;12634;50.852;5.676;2023-02-14T07:29:20;4.10;99.90
24468;DHT22;12634;50.852;5.676;2023-02-14T07:31:49;4.20;99.90
24468;DHT22;12634;50.852;5.676;2023-02-14T07:34:16;4.50;99.90
24468;DHT22;12634;50.852;5.676;2023-02-14T07:36:43;4.60;99.90
24468;DHT22;12634;50.852;5.676;2023-02-14T07:39:11;4.80;99.90
24468;DHT22;12634;50.852;5.676;2023-02-14T07:41:38;4.70;99.90
24468;DHT22;12634;50.852;5.676;2023-02-14T07:44:05;4.90;99.90
24468;DHT22;12634;50.852;5.676;2023-02-14T07:46:33;5.00;99.90
24468;DHT22;12634;50.852;5.676;2023-02-14T07:49:01;5.30;99.90
24468;DHT22;12634;50.852;5.676;2023-02-14T07:51:29;5.70;99.90
24468;DHT22;12634;50.852;5.676;2023-02-14T07:53:56;5.40;99.90
24468;DHT22;12634;50.852;5.676;2023-02-14T07:56:23;5.30;99.90
24468;DHT22;12634;50.852;5.676;2023-02-14T07:58:50;5.40;99.90
24468;DHT22;12634;50.852;5.676;2023-02-14T08:01:18;5.60;99.90
24468;DHT22;12634;50.852;5.676;2023-02-14T08:03:45;6.00;99.90
24468;DHT22;12634;50.852;5.676;2023-02-14T08:06:16;6.30;99.90
24468;DHT22;12634;50.852;5.676;2023-02-14T08:08:44;6.40;99.90
24468;DHT22;12634;50.852;5.676;2023-02-14T08:11:11;6.60;99.90
24468;DHT22;12634;50.852;5.676;2023-02-14T08:13:59;6.50;99.90
24468;DHT22;12634;50.852;5.676;2023-02-14T08:16:26;6.30;99.90
24468;DHT22;12634;50.852;5.676;2023-02-14T08:18:54;6.70;99.90
24468;DHT22;12634;50.852;5.676;2023-02-14T08:21:22;6.80;99.90
24468;DHT22;12634;50.852;5.676;2023-02-14T08:23:50;7.00;99.90
24468;DHT22;12634;50.852;5.676;2023-02-14T08:26:17;7.00;99.90
24468;DHT22;12634;50.852;5.676;2023-02-14T08:28:44;7.50;99.90
24468;DHT22;12634;50.852;5.676;2023-02-14T08:31:11;7.40;99.90
24468;DHT22;12634;50.852;5.676;2023-02-14T08:33:38;7.60;99.90
24468;DHT22;12634;50.852;5.676;2023-02-14T08:36:07;8.00;99.90
24468;DHT22;12634;50.852;5.676;2023-02-14T08:38:36;8.00;99.90
24468;DHT22;12634;50.852;5.676;2023-02-14T08:41:03;8.40;99.90
24468;DHT22;12634;50.852;5.676;2023-02-14T08:43:30;8.70;99.90
24468;DHT22;12634;50.852;5.676;2023-02-14T08:45:58;8.70;99.90
24468;DHT22;12634;50.852;5.676;2023-02-14T08:48:26;8.90;99.90
24468;DHT22;12634;50.852;5.676;2023-02-14T08:50:53;8.90;99.90
24468;DHT22;12634;50.852;5.676;2023-02-14T08:53:20;8.60;99.90
24468;DHT22;12634;50.852;5.676;2023-02-14T08:55:49;8.60;99.90
24468;DHT22;12634;50.852;5.676;2023-02-14T08:58:17;8.50;99.90
24468;DHT22;12634;50.852;5.676;2023-02-14T09:00:44;8.00;99.90
24468;DHT22;12634;50.852;5.676;2023-02-14T09:03:11;8.10;99.90
24468;DHT22;12634;50.852;5.676;2023-02-14T09:05:39;8.00;99.90
24468;DHT22;12634;50.852;5.676;2023-02-14T09:08:06;7.60;99.90
24468;DHT22;12634;50.852;5.676;2023-02-14T09:10:33;7.80;99.90
24468;DHT22;12634;50.852;5.676;2023-02-14T09:13:02;8.00;99.90
24468;DHT22;12634;50.852;5.676;2023-02-14T09:15:29;8.10;99.90
24468;DHT22;12634;50.852;5.676;2023-02-14T09:17:57;8.20;99.90
24468;DHT22;12634;50.852;5.676;2023-02-14T09:20:24;8.80;99.90
24468;DHT22;12634;50.852;5.676;2023-02-14T09:22:54;8.50;99.90
24468;DHT22;12634;50.852;5.676;2023-02-14T09:25:21;8.60;99.90
24468;DHT22;12634;50.852;5.676;2023-02-14T09:27:48;8.30;99.90
24468;DHT22;12634;50.852;5.676;2023-02-14T09:30:17;8.40;99.90
24468;DHT22;12634;50.852;5.676;2023-02-14T09:32:44;8.40;99.90
24468;DHT22;12634;50.852;5.676;2023-02-14T09:35:11;8.30;99.90
24468;DHT22;12634;50.852;5.676;2023-02-14T09:37:38;8.30;99.90
24468;DHT22;12634;50.852;5.676;2023-02-14T09:40:23;8.90;99.90
24468;DHT22;12634;50.852;5.676;2023-02-14T09:42:59;9.10;99.90
24468;DHT22;12634;50.852;5.676;2023-02-14T09:45:31;9.50;99.90
24468;DHT22;12634;50.852;5.676;2023-02-14T09:48:01;10.00;99.90
24468;DHT22;12634;50.852;5.676;2023-02-14T09:50:32;10.10;99.90
24468;DHT22;12634;50.852;5.676;2023-02-14T09:53:03;10.30;99.90
24468;DHT22;12634;50.852;5.676;2023-02-14T09:55:39;10.40;99.90
24468;DHT22;12634;50.852;5.676;2023-02-14T09:58:14;10.40;99.90
24468;DHT22;12634;50.852;5.676;2023-02-14T10:00:45;10.30;99.90
24468;DHT22;12634;50.852;5.676;2023-02-14T10:03:50;10.30;99.90
24468;DHT22;12634;50.852;5.676;2023-02-14T10:06:39;10.30;99.90
24468;DHT22;12634;50.852;5.676;2023-02-14T10:09:13;10.20;99.90
24468;DHT22;12634;50.852;5.676;2023-02-14T10:11:45;10.20;99.90
24468;DHT22;12634;50.852;5.676;2023-02-14T10:14:14;10.30;99.90
24468;DHT22;12634;50.852;5.676;2023-02-14T10:16:47;10.20;99.90
24468;DHT22;12634;50.852;5.676;2023-02-14T10:19:18;10.00;99.90
24468;DHT22;12634;50.852;5.676;2023-02-14T10:21:50;10.30;99.90
24468;DHT22;12634;50.852;5.676;2023-02-14T10:24:21;10.40;99.90
24468;DHT22;12634;50.852;5.676;2023-02-14T10:26:49;10.50;99.90
24468;DHT22;12634;50.852;5.676;2023-02-14T10:29:19;10.50;99.90
24468;DHT22;12634;50.852;5.676;2023-02-14T10:31:51;10.50;99.90
24468;DHT22;12634;50.852;5.676;2023-02-14T10:34:28;10.90;99.90
24468;DHT22;12634;50.852;5.676;2023-02-14T10:40:06;11.50;99.90
24468;DHT22;12634;50.852;5.676;2023-02-14T10:42:41;11.70;99.90
24468;DHT22;12634;50.852;5.676;2023-02-14T10:45:21;11.60;99.90
24468;DHT22;12634;50.852;5.676;2023-02-14T10:47:57;11.70;99.90
24468;DHT22;12634;50.852;5.676;2023-02-14T10:50:30;12.00;99.90
24468;DHT22;12634;50.852;5.676;2023-02-14T10:53:06;12.10;99.90
24468;DHT22;12634;50.852;5.676;2023-02-14T10:55:43;12.00;99.90
24468;DHT22;12634;50.852;5.676;2023-02-14T10:58:16;12.20;99.90
24468;DHT22;12634;50.852;5.676;2023-02-14T11:00:52;11.80;99.90
24468;DHT22;12634;50.852;5.676;2023-02-14T11:03:23;11.80;99.90
24468;DHT22;12634;50.852;5.676;2023-02-14T11:05:50;12.00;99.90
24468;DHT22;12634;50.852;5.676;2023-02-14T11:08:23;12.00;99.90
24468;DHT22;12634;50.852;5.676;2023-02-14T11:10:51;12.00;99.90
24468;DHT22;12634;50.852;5.676;2023-02-14T11:13:31;12.40;99.90
24468;DHT22;12634;50.852;5.676;2023-02-14T11:16:01;12.60;99.90
24468;DHT22;12634;50.852;5.676;2023-02-14T11:18:30;13.00;99.90
24468;DHT22;12634;50.852;5.676;2023-02-14T11:21:08;13.20;99.90
24468;DHT22;12634;50.852;5.676;2023-02-14T11:23:39;13.10;99.90
24468;DHT22;12634;50.852;5.676;2023-02-14T11:26:13;13.50;99.90
24468;DHT22;12634;50.852;5.676;2023-02-14T11:28:50;13.40;99.90
24468;DHT22;12634;50.852;5.676;2023-02-14T11:31:29;13.40;99.90
24468;DHT22;12634;50.852;5.676;2023-02-14T11:33:59;13.70;99.90
24468;DHT22;12634;50.852;5.676;2023-02-14T11:36:28;13.40;99.90
24468;DHT22;12634;50.852;5.676;2023-02-14T11:39:02;13.80;99.90
24468;DHT22;12634;50.852;5.676;2023-02-14T11:41:46;13.80;99.90
24468;DHT22;12634;50.852;5.676;2023-02-14T11:44:16;14.00;99.90
24468;DHT22;12634;50.852;5.676;2023-02-14T11:46:47;14.00;99.90
24468;DHT22;12634;50.852;5.676;2023-02-14T11:49:26;14.30;99.90
24468;DHT22;12634;50.852;5.676;2023-02-14T11:51:55;14.10;99.90
24468;DHT22;12634;50.852;5.676;2023-02-14T11:54:29;14.10;99.90
24468;DHT22;12634;50.852;5.676;2023-02-14T11:57:01;14.70;99.90
24468;DHT22;12634;50.852;5.676;2023-02-14T11:59:33;14.40;99.90
24468;DHT22;12634;50.852;5.676;2023-02-14T12:02:10;14.70;99.90
24468;DHT22;12634;50.852;5.676;2023-02-14T12:04:43;15.00;99.90
24468;DHT22;12634;50.852;5.676;2023-02-14T12:07:19;15.00;99.90
24468;DHT22;12634;50.852;5.676;2023-02-14T12:12:58;14.80;99.90
24468;DHT22;12634;50.852;5.676;2023-02-14T12:15:32;15.00;99.90
24468;DHT22;12634;50.852;5.676;2023-02-14T12:21:23;14.50;99.90
24468;DHT22;12634;50.852;5.676;2023-02-14T12:23:58;14.60;99.90
24468;DHT22;12634;50.852;5.676;2023-02-14T12:26:32;14.30;99.90
24468;DHT22;12634;50.852;5.676;2023-02-14T12:29:07;14.50;99.90
24468;DHT22;12634;50.852;5.676;2023-02-14T12:31:35;14.70;99.90
24468;DHT22;12634;50.852;5.676;2023-02-14T12:34:03;14.70;99.90
24468;DHT22;12634;50.852;5.676;2023-02-14T12:36:58;14.40;99.90
24468;DHT22;12634;50.852;5.676;2023-02-14T12:39:34;14.70;99.90
24468;DHT22;12634;50.852;5.676;2023-02-14T12:42:11;14.90;99.90
24468;DHT22;12634;50.852;5.676;2023-02-14T12:44:50;15.30;99.90
24468;DHT22;12634;50.852;5.676;2023-02-14T12:47:27;14.80;99.90
24468;DHT22;12634;50.852;5.676;2023-02-14T12:50:15;15.30;99.90
24468;DHT22;12634;50.852;5.676;2023-02-14T12:52:58;15.30;99.90
24468;DHT22;12634;50.852;5.676;2023-02-14T12:55:35;15.50;99.90
24468;DHT22;12634;50.852;5.676;2023-02-14T12:58:15;15.50;99.90
24468;DHT22;12634;50.852;5.676;2023-02-14T13:00:54;16.00;99.90
24468;DHT22;12634;50.852;5.676;2023-02-14T13:03:49;16.00;99.90
24468;DHT22;12634;50.852;5.676;2023-02-14T13:06:27;15.80;99.90
24468;DHT22;12634;50.852;5.676;2023-02-14T13:09:19;15.40;99.90
24468;DHT22;12634;50.852;5.676;2023-02-14T13:11:59;15.40;99.90
24468;DHT22;12634;50.852;5.676;2023-02-14T13:14:41;15.50;99.90
24468;DHT22;12634;50.852;5.676;2023-02-14T13:17:17;15.80;99.90
24468;DHT22;12634;50.852;5.676;2023-02-14T13:19:53;15.70;99.90
24468;DHT22;12634;50.852;5.676;2023-02-14T13:22:26;15.80;99.90
24468;DHT22;12634;50.852;5.676;2023-02-14T13:24:59;16.10;99.90
24468;DHT22;12634;50.852;5.676;2023-02-14T13:27:30;16.50;99.90
24468;DHT22;12634;50.852;5.676;2023-02-14T13:30:00;16.30;99.90
24468;DHT22;12634;50.852;5.676;2023-02-14T13:32:32;15.70;99.90
24468;DHT22;12634;50.852;5.676;2023-02-14T13:35:02;15.60;99.90
24468;DHT22;12634;50.852;5.676;2023-02-14T13:37:31;15.80;99.90
24468;DHT22;12634;50.852;5.676;2023-02-14T13:40:02;16.40;99.90
24468;DHT22;12634;50.852;5.676;2023-02-14T13:42:55;16.70;99.90
24468;DHT22;12634;50.852;5.676;2023-02-14T13:45:51;16.60;99.90
24468;DHT22;12634;50.852;5.676;2023-02-14T13:48:20;16.40;99.90
24468;DHT22;12634;50.852;5.676;2023-02-14T13:50:50;16.40;99.90
24468;DHT22;12634;50.852;5.676;2023-02-14T13:53:39;16.60;99.90
24468;DHT22;12634;50.852;5.676;2023-02-14T13:56:33;16.50;99.90
24468;DHT22;12634;50.852;5.676;2023-02-14T13:59:03;16.40;99.90
24468;DHT22;12634;50.852;5.676;2023-02-14T14:01:34;16.50;99.90
24468;DHT22;12634;50.852;5.676;2023-02-14T14:04:03;16.40;99.90
24468;DHT22;12634;50.852;5.676;2023-02-14T14:09:56;16.60;99.90
24468;DHT22;12634;50.852;5.676;2023-02-14T14:12:42;16.80;99.90
24468;DHT22;12634;50.852;5.676;2023-02-14T14:15:17;16.80;99.90
24468;DHT22;12634;50.852;5.676;2023-02-14T14:17:48;16.80;99.90
24468;DHT22;12634;50.852;5.676;2023-02-14T14:20:43;16.80;99.90
24468;DHT22;12634;50.852;5.676;2023-02-14T14:23:34;17.20;99.90
24468;DHT22;12634;50.852;5.676;2023-02-14T14:26:18;17.10;99.90
24468;DHT22;12634;50.852;5.676;2023-02-14T14:28:55;16.90;99.90
24468;DHT22;12634;50.852;5.676;2023-02-14T14:31:23;16.80;99.90
24468;DHT22;12634;50.852;5.676;2023-02-14T14:33:57;16.80;99.90
24468;DHT22;12634;50.852;5.676;2023-02-14T14:36:25;16.70;99.90
24468;DHT22;12634;50.852;5.676;2023-02-14T14:38:53;16.90;99.90
24468;DHT22;12634;50.852;5.676;2023-02-14T14:41:26;16.80;99.90
24468;DHT22;12634;50.852;5.676;2023-02-14T14:43:57;17.00;99.90
24468;DHT22;12634;50.852;5.676;2023-02-14T14:46:25;17.00;99.90
24468;DHT22;12634;50.852;5.676;2023-02-14T14:48:54;16.90;99.90
24468;DHT22;12634;50.852;5.676;2023-02-14T14:51:24;16.80;99.90
24468;DHT22;12634;50.852;5.676;2023-02-14T14:53:54;16.80;99.90
24468;DHT22;12634;50.852;5.676;2023-02-14T14:56:24;17.10;99.90
24468;DHT22;12634;50.852;5.676;2023-02-14T14:58:52;17.00;99.90
24468;DHT22;12634;50.852;5.676;2023-02-14T15:01:35;17.00;99.90
24468;DHT22;12634;50.852;5.676;2023-02-14T15:04:10;16.70;99.90
24468;DHT22;12634;50.852;5.676;2023-02-14T15:06:38;16.50;99.90
24468;DHT22;12634;50.852;5.676;2023-02-14T15:09:14;16.20;99.90
24468;DHT22;12634;50.852;5.676;2023-02-14T15:11:43;15.90;99.90
24468;DHT22;12634;50.852;5.676;2023-02-14T15:14:31;15.80;99.90
24468;DHT22;12634;50.852;5.676;2023-02-14T15:17:03;15.80;99.90
24468;DHT22;12634;50.852;5.676;2023-02-14T15:19:34;15.50;99.90
24468;DHT22;12634;50.852;5.676;2023-02-14T15:22:05;15.30;99.90
24468;DHT22;12634;50.852;5.676;2023-02-14T15:24:33;15.30;99.90
24468;DHT22;12634;50.852;5.676;2023-02-14T15:27:04;15.30;99.90
24468;DHT22;12634;50.852;5.676;2023-02-14T15:29:32;15.40;99.90
24468;DHT22;12634;50.852;5.676;2023-02-14T15:32:01;15.30;99.90
24468;DHT22;12634;50.852;5.676;2023-02-14T15:34:31;15.20;99.90
24468;DHT22;12634;50.852;5.676;2023-02-14T15:37:01;15.20;99.90
24468;DHT22;12634;50.852;5.676;2023-02-14T15:39:34;15.00;99.90
24468;DHT22;12634;50.852;5.676;2023-02-14T15:42:03;14.80;99.90
24468;DHT22;12634;50.852;5.676;2023-02-14T15:44:31;14.70;99.90
24468;DHT22;12634;50.852;5.676;2023-02-14T15:47:02;14.70;99.90
24468;DHT22;12634;50.852;5.676;2023-02-14T15:49:34;14.80;99.90
24468;DHT22;12634;50.852;5.676;2023-02-14T15:52:03;14.60;99.90
24468;DHT22;12634;50.852;5.676;2023-02-14T15:54:36;14.50;99.90
24468;DHT22;12634;50.852;5.676;2023-02-14T15:57:06;14.20;99.90
24468;DHT22;12634;50.852;5.676;2023-02-14T15:59:42;13.80;99.90
24468;DHT22;12634;50.852;5.676;2023-02-14T16:02:25;13.40;99.90
24468;DHT22;12634;50.852;5.676;2023-02-14T16:04:53;12.90;99.90
24468;DHT22;12634;50.852;5.676;2023-02-14T16:07:23;12.50;99.90
24468;DHT22;12634;50.852;5.676;2023-02-14T16:12:39;11.80;99.90
24468;DHT22;12634;50.852;5.676;2023-02-14T16:15:17;11.30;99.90
24468;DHT22;12634;50.852;5.676;2023-02-14T16:17:46;11.00;99.90
24468;DHT22;12634;50.852;5.676;2023-02-14T16:20:27;10.80;99.90
24468;DHT22;12634;50.852;5.676;2023-02-14T16:23:19;10.70;99.90
24468;DHT22;12634;50.852;5.676;2023-02-14T16:25:47;10.50;99.90
24468;DHT22;12634;50.852;5.676;2023-02-14T16:28:15;10.30;99.90
24468;DHT22;12634;50.852;5.676;2023-02-14T16:30:44;10.00;99.90
24468;DHT22;12634;50.852;5.676;2023-02-14T16:33:18;9.80;99.90
24468;DHT22;12634;50.852;5.676;2023-02-14T16:35:46;9.50;99.90
24468;DHT22;12634;50.852;5.676;2023-02-14T16:38:16;9.60;99.90
24468;DHT22;12634;50.852;5.676;2023-02-14T16:40:45;9.40;99.90